sensor_id;sensor_type;location;lat;lon;timestamp;P1;durP1;ratioP1;P2;durP2;ratioP2
76035;SDS011;64732;56.314;44.068;2023-10-08T00:00:08;4.50;;;1.95;;
76035;SDS011;64732;56.314;44.068;2023-10-08T00:02:30;4.03;;;2.20;;
76035;SDS011;64732;56.314;44.068;2023-10-08T00:04:51;3.63;;;1.90;;
76035;SDS011;64732;56.314;44.068;2023-10-08T00:07:13;3.70;;;1.85;;
76035;SDS011;64732;56.314;44.068;2023-10-08T00:09:36;2.88;;;1.50;;
76035;SDS011;64732;56.314;44.068;2023-10-08T00:11:57;3.75;;;2.10;;
76035;SDS011;64732;56.314;44.068;2023-10-08T00:14:19;16.05;;;3.28;;
76035;SDS011;64732;56.314;44.068;2023-10-08T00:16:40;8.40;;;2.30;;
76035;SDS011;64732;56.314;44.068;2023-10-08T00:19:01;7.63;;;2.25;;
76035;SDS011;64732;56.314;44.068;2023-10-08T00:21:22;4.70;;;2.60;;
76035;SDS011;64732;56.314;44.068;2023-10-08T00:23:43;6.53;;;2.00;;
76035;SDS011;64732;56.314;44.068;2023-10-08T00:26:07;2.88;;;1.73;;
76035;SDS011;64732;56.314;44.068;2023-10-08T00:28:28;3.95;;;2.47;;
76035;SDS011;64732;56.314;44.068;2023-10-08T00:30:49;5.53;;;2.67;;
76035;SDS011;64732;56.314;44.068;2023-10-08T00:33:10;5.13;;;2.95;;
76035;SDS011;64732;56.314;44.068;2023-10-08T00:35:31;5.95;;;3.22;;
76035;SDS011;64732;56.314;44.068;2023-10-08T00:37:53;6.18;;;2.60;;
76035;SDS011;64732;56.314;44.068;2023-10-08T00:40:14;4.88;;;2.60;;
76035;SDS011;64732;56.314;44.068;2023-10-08T00:42:38;8.82;;;3.08;;
76035;SDS011;64732;56.314;44.068;2023-10-08T00:44:59;5.25;;;2.80;;
76035;SDS011;64732;56.314;44.068;2023-10-08T00:47:20;4.50;;;2.72;;
76035;SDS011;64732;56.314;44.068;2023-10-08T00:49:41;4.72;;;3.00;;
76035;SDS011;64732;56.314;44.068;2023-10-08T00:52:03;3.40;;;2.20;;
76035;SDS011;64732;56.314;44.068;2023-10-08T00:54:24;6.25;;;2.10;;
76035;SDS011;64732;56.314;44.068;2023-10-08T00:56:45;6.40;;;1.90;;
76035;SDS011;64732;56.314;44.068;2023-10-08T00:59:09;17.45;;;2.60;;
76035;SDS011;64732;56.314;44.068;2023-10-08T01:01:30;8.27;;;1.33;;
76035;SDS011;64732;56.314;44.068;2023-10-08T01:03:54;12.98;;;2.00;;
76035;SDS011;64732;56.314;44.068;2023-10-08T01:06:15;13.52;;;1.90;;
76035;SDS011;64732;56.314;44.068;2023-10-08T01:08:37;32.95;;;2.17;;
76035;SDS011;64732;56.314;44.068;2023-10-08T01:10:58;7.72;;;1.35;;
76035;SDS011;64732;56.314;44.068;2023-10-08T01:13:19;21.20;;;1.98;;
76035;SDS011;64732;56.314;44.068;2023-10-08T01:15:43;33.63;;;3.05;;
76035;SDS011;64732;56.314;44.068;2023-10-08T01:18:04;17.25;;;1.48;;
76035;SDS011;64732;56.314;44.068;2023-10-08T01:20:26;21.13;;;1.30;;
76035;SDS011;64732;56.314;44.068;2023-10-08T01:22:49;17.80;;;1.67;;
76035;SDS011;64732;56.314;44.068;2023-10-08T01:25:10;2.65;;;0.70;;
76035;SDS011;64732;56.314;44.068;2023-10-08T01:27:32;5.00;;;0.88;;
76035;SDS011;64732;56.314;44.068;2023-10-08T01:29:53;9.70;;;1.05;;
76035;SDS011;64732;56.314;44.068;2023-10-08T01:32:14;4.35;;;0.90;;
76035;SDS011;64732;56.314;44.068;2023-10-08T01:34:35;5.63;;;1.10;;
76035;SDS011;64732;56.314;44.068;2023-10-08T01:36:56;4.00;;;0.90;;
76035;SDS011;64732;56.314;44.068;2023-10-08T01:39:20;5.60;;;0.45;;
76035;SDS011;64732;56.314;44.068;2023-10-08T01:41:42;5.82;;;0.43;;
76035;SDS011;64732;56.314;44.068;2023-10-08T01:44:04;7.07;;;0.80;;
76035;SDS011;64732;56.314;44.068;2023-10-08T01:46:25;14.25;;;1.33;;
76035;SDS011;64732;56.314;44.068;2023-10-08T01:48:46;12.02;;;1.05;;
76035;SDS011;64732;56.314;44.068;2023-10-08T01:51:07;19.02;;;1.38;;
76035;SDS011;64732;56.314;44.068;2023-10-08T01:53:28;6.65;;;1.30;;
76035;SDS011;64732;56.314;44.068;2023-10-08T01:55:52;6.93;;;1.38;;
76035;SDS011;64732;56.314;44.068;2023-10-08T01:58:13;6.93;;;1.50;;
76035;SDS011;64732;56.314;44.068;2023-10-08T02:00:35;5.32;;;1.80;;
76035;SDS011;64732;56.314;44.068;2023-10-08T02:02:56;7.75;;;2.00;;
76035;SDS011;64732;56.314;44.068;2023-10-08T02:05:19;3.03;;;1.65;;
76035;SDS011;64732;56.314;44.068;2023-10-08T02:07:40;7.10;;;1.77;;
76035;SDS011;64732;56.314;44.068;2023-10-08T02:10:02;3.05;;;1.48;;
76035;SDS011;64732;56.314;44.068;2023-10-08T02:12:27;4.78;;;1.88;;
76035;SDS011;64732;56.314;44.068;2023-10-08T02:14:48;6.45;;;1.95;;
76035;SDS011;64732;56.314;44.068;2023-10-08T02:17:09;3.17;;;1.20;;
76035;SDS011;64732;56.314;44.068;2023-10-08T02:19:30;2.65;;;0.93;;
76035;SDS011;64732;56.314;44.068;2023-10-08T02:21:52;11.40;;;2.70;;
76035;SDS011;64732;56.314;44.068;2023-10-08T02:24:13;12.52;;;2.10;;
76035;SDS011;64732;56.314;44.068;2023-10-08T02:26:34;2.42;;;1.15;;
76035;SDS011;64732;56.314;44.068;2023-10-08T02:28:57;53.10;;;4.85;;
76035;SDS011;64732;56.314;44.068;2023-10-08T02:31:18;10.48;;;2.72;;
76035;SDS011;64732;56.314;44.068;2023-10-08T02:33:39;3.25;;;1.10;;
76035;SDS011;64732;56.314;44.068;2023-10-08T02:36:02;9.63;;;2.17;;
76035;SDS011;64732;56.314;44.068;2023-10-08T02:38:23;0.57;;;0.57;;
76035;SDS011;64732;56.314;44.068;2023-10-08T02:40:44;8.75;;;2.45;;
76035;SDS011;64732;56.314;44.068;2023-10-08T02:43:05;7.60;;;2.03;;
76035;SDS011;64732;56.314;44.068;2023-10-08T02:45:29;10.20;;;3.35;;
76035;SDS011;64732;56.314;44.068;2023-10-08T02:47:50;5.35;;;2.28;;
76035;SDS011;64732;56.314;44.068;2023-10-08T02:50:11;4.13;;;1.70;;
76035;SDS011;64732;56.314;44.068;2023-10-08T02:52:32;2.30;;;1.10;;
76035;SDS011;64732;56.314;44.068;2023-10-08T02:54:53;4.43;;;1.50;;
76035;SDS011;64732;56.314;44.068;2023-10-08T02:57:14;5.68;;;1.42;;
76035;SDS011;64732;56.314;44.068;2023-10-08T02:59:35;9.98;;;1.85;;
76035;SDS011;64732;56.314;44.068;2023-10-08T03:01:59;4.65;;;1.40;;
76035;SDS011;64732;56.314;44.068;2023-10-08T03:04:20;2.33;;;0.82;;
76035;SDS011;64732;56.314;44.068;2023-10-08T03:06:41;1.45;;;0.70;;
76035;SDS011;64732;56.314;44.068;2023-10-08T03:09:02;1.38;;;0.50;;
76035;SDS011;64732;56.314;44.068;2023-10-08T03:11:25;2.63;;;0.60;;
76035;SDS011;64732;56.314;44.068;2023-10-08T03:13:46;2.28;;;0.50;;
76035;SDS011;64732;56.314;44.068;2023-10-08T03:16:07;2.55;;;0.82;;
76035;SDS011;64732;56.314;44.068;2023-10-08T03:18:30;1.55;;;0.57;;
76035;SDS011;64732;56.314;44.068;2023-10-08T03:20:52;1.80;;;0.75;;
76035;SDS011;64732;56.314;44.068;2023-10-08T03:23:13;3.70;;;0.63;;
76035;SDS011;64732;56.314;44.068;2023-10-08T03:25:34;7.13;;;1.25;;
76035;SDS011;64732;56.314;44.068;2023-10-08T03:27:55;3.67;;;0.93;;
76035;SDS011;64732;56.314;44.068;2023-10-08T03:30:16;3.78;;;1.60;;
76035;SDS011;64732;56.314;44.068;2023-10-08T03:32:37;2.42;;;1.08;;
76035;SDS011;64732;56.314;44.068;2023-10-08T03:35:03;3.95;;;1.30;;
76035;SDS011;64732;56.314;44.068;2023-10-08T03:37:25;3.40;;;1.00;;
76035;SDS011;64732;56.314;44.068;2023-10-08T03:39:46;2.72;;;0.70;;
76035;SDS011;64732;56.314;44.068;2023-10-08T03:42:07;2.85;;;0.60;;
76035;SDS011;64732;56.314;44.068;2023-10-08T03:44:28;5.03;;;1.23;;
76035;SDS011;64732;56.314;44.068;2023-10-08T03:46:50;2.42;;;1.33;;
76035;SDS011;64732;56.314;44.068;2023-10-08T03:49:11;3.80;;;0.75;;
76035;SDS011;64732;56.314;44.068;2023-10-08T03:51:35;2.08;;;0.63;;
76035;SDS011;64732;56.314;44.068;2023-10-08T03:53:56;3.08;;;0.55;;
76035;SDS011;64732;56.314;44.068;2023-10-08T03:56:17;1.05;;;0.20;;
76035;SDS011;64732;56.314;44.068;2023-10-08T03:58:38;0.85;;;0.40;;
76035;SDS011;64732;56.314;44.068;2023-10-08T04:00:58;1.00;;;0.35;;
76035;SDS011;64732;56.314;44.068;2023-10-08T04:03:20;2.97;;;0.70;;
76035;SDS011;64732;56.314;44.068;2023-10-08T04:05:40;2.45;;;1.13;;
76035;SDS011;64732;56.314;44.068;2023-10-08T04:08:04;3.40;;;0.90;;
76035;SDS011;64732;56.314;44.068;2023-10-08T04:10:25;4.55;;;1.13;;
76035;SDS011;64732;56.314;44.068;2023-10-08T04:12:47;2.92;;;1.20;;
76035;SDS011;64732;56.314;44.068;2023-10-08T04:15:08;4.65;;;1.50;;
76035;SDS011;64732;56.314;44.068;2023-10-08T04:17:29;1.48;;;0.68;;
76035;SDS011;64732;56.314;44.068;2023-10-08T04:19:50;1.98;;;0.95;;
76035;SDS011;64732;56.314;44.068;2023-10-08T04:22:11;2.50;;;0.73;;
76035;SDS011;64732;56.314;44.068;2023-10-08T04:24:35;3.08;;;0.98;;
76035;SDS011;64732;56.314;44.068;2023-10-08T04:26:58;2.17;;;0.90;;
76035;SDS011;64732;56.314;44.068;2023-10-08T04:29:19;2.08;;;0.75;;
76035;SDS011;64732;56.314;44.068;2023-10-08T04:31:40;2.58;;;0.98;;
76035;SDS011;64732;56.314;44.068;2023-10-08T04:34:01;1.98;;;0.80;;
76035;SDS011;64732;56.314;44.068;2023-10-08T04:36:22;2.60;;;0.90;;
76035;SDS011;64732;56.314;44.068;2023-10-08T04:38:43;2.40;;;0.55;;
76035;SDS011;64732;56.314;44.068;2023-10-08T04:41:07;2.20;;;0.70;;
76035;SDS011;64732;56.314;44.068;2023-10-08T04:43:28;2.65;;;0.75;;
76035;SDS011;64732;56.314;44.068;2023-10-08T04:45:49;2.40;;;0.70;;
76035;SDS011;64732;56.314;44.068;2023-10-08T04:48:10;1.92;;;0.77;;
76035;SDS011;64732;56.314;44.068;2023-10-08T04:50:32;4.15;;;1.25;;
76035;SDS011;64732;56.314;44.068;2023-10-08T04:52:53;3.30;;;0.75;;
76035;SDS011;64732;56.314;44.068;2023-10-08T04:55:14;2.47;;;0.88;;
76035;SDS011;64732;56.314;44.068;2023-10-08T04:57:38;3.25;;;0.90;;
76035;SDS011;64732;56.314;44.068;2023-10-08T04:59:58;1.10;;;0.50;;
76035;SDS011;64732;56.314;44.068;2023-10-08T05:02:20;1.33;;;0.57;;
76035;SDS011;64732;56.314;44.068;2023-10-08T05:04:41;1.50;;;0.70;;
76035;SDS011;64732;56.314;44.068;2023-10-08T05:07:03;2.42;;;0.70;;
76035;SDS011;64732;56.314;44.068;2023-10-08T05:09:24;2.20;;;0.60;;
76035;SDS011;64732;56.314;44.068;2023-10-08T05:11:45;1.95;;;0.75;;
76035;SDS011;64732;56.314;44.068;2023-10-08T05:14:09;5.10;;;0.90;;
76035;SDS011;64732;56.314;44.068;2023-10-08T05:16:30;1.40;;;0.60;;
76035;SDS011;64732;56.314;44.068;2023-10-08T05:18:51;3.33;;;0.73;;
76035;SDS011;64732;56.314;44.068;2023-10-08T05:21:12;1.30;;;0.47;;
76035;SDS011;64732;56.314;44.068;2023-10-08T05:23:34;2.40;;;0.40;;
76035;SDS011;64732;56.314;44.068;2023-10-08T05:25:55;2.25;;;0.50;;
76035;SDS011;64732;56.314;44.068;2023-10-08T05:28:17;1.63;;;0.50;;
76035;SDS011;64732;56.314;44.068;2023-10-08T05:30:41;10.02;;;2.40;;
76035;SDS011;64732;56.314;44.068;2023-10-08T05:33:02;0.80;;;0.35;;
76035;SDS011;64732;56.314;44.068;2023-10-08T05:35:24;0.82;;;0.30;;
76035;SDS011;64732;56.314;44.068;2023-10-08T05:37:45;0.85;;;0.40;;
76035;SDS011;64732;56.314;44.068;2023-10-08T05:40:07;1.95;;;0.60;;
76035;SDS011;64732;56.314;44.068;2023-10-08T05:42:29;3.10;;;0.40;;
76035;SDS011;64732;56.314;44.068;2023-10-08T05:44:50;0.85;;;0.38;;
76035;SDS011;64732;56.314;44.068;2023-10-08T05:47:13;1.15;;;0.45;;
76035;SDS011;64732;56.314;44.068;2023-10-08T05:49:34;1.20;;;0.55;;
76035;SDS011;64732;56.314;44.068;2023-10-08T05:51:55;6.43;;;0.50;;
76035;SDS011;64732;56.314;44.068;2023-10-08T05:54:17;1.10;;;0.40;;
76035;SDS011;64732;56.314;44.068;2023-10-08T05:56:39;1.40;;;0.40;;
76035;SDS011;64732;56.314;44.068;2023-10-08T05:59:00;1.38;;;0.52;;
76035;SDS011;64732;56.314;44.068;2023-10-08T06:01:21;3.13;;;0.68;;
76035;SDS011;64732;56.314;44.068;2023-10-08T06:03:44;3.65;;;0.80;;
76035;SDS011;64732;56.314;44.068;2023-10-08T06:06:06;1.52;;;0.70;;
76035;SDS011;64732;56.314;44.068;2023-10-08T06:08:29;3.00;;;0.50;;
76035;SDS011;64732;56.314;44.068;2023-10-08T06:10:50;0.95;;;0.40;;
76035;SDS011;64732;56.314;44.068;2023-10-08T06:13:40;2.72;;;0.57;;
76035;SDS011;64732;56.314;44.068;2023-10-08T06:16:34;0.98;;;0.28;;
76035;SDS011;64732;56.314;44.068;2023-10-08T06:18:58;1.40;;;0.70;;
76035;SDS011;64732;56.314;44.068;2023-10-08T06:21:19;1.00;;;0.45;;
76035;SDS011;64732;56.314;44.068;2023-10-08T06:23:40;1.30;;;0.40;;
76035;SDS011;64732;56.314;44.068;2023-10-08T06:26:03;2.58;;;0.50;;
76035;SDS011;64732;56.314;44.068;2023-10-08T06:28:24;4.75;;;1.45;;
76035;SDS011;64732;56.314;44.068;2023-10-08T06:30:46;3.50;;;0.52;;
76035;SDS011;64732;56.314;44.068;2023-10-08T06:33:11;3.55;;;1.13;;
76035;SDS011;64732;56.314;44.068;2023-10-08T06:35:35;2.55;;;0.60;;
76035;SDS011;64732;56.314;44.068;2023-10-08T06:37:56;3.70;;;1.00;;
76035;SDS011;64732;56.314;44.068;2023-10-08T06:40:23;3.58;;;1.10;;
76035;SDS011;64732;56.314;44.068;2023-10-08T06:42:47;0.70;;;0.30;;
76035;SDS011;64732;56.314;44.068;2023-10-08T06:45:11;1.23;;;0.65;;
76035;SDS011;64732;56.314;44.068;2023-10-08T06:47:32;5.35;;;0.70;;
76035;SDS011;64732;56.314;44.068;2023-10-08T06:49:53;2.05;;;0.43;;
76035;SDS011;64732;56.314;44.068;2023-10-08T06:52:16;0.30;;;0.20;;
76035;SDS011;64732;56.314;44.068;2023-10-08T06:54:37;2.65;;;0.50;;
76035;SDS011;64732;56.314;44.068;2023-10-08T06:56:59;2.60;;;0.50;;
76035;SDS011;64732;56.314;44.068;2023-10-08T06:59:20;1.90;;;0.50;;
76035;SDS011;64732;56.314;44.068;2023-10-08T07:01:41;1.70;;;0.68;;
76035;SDS011;64732;56.314;44.068;2023-10-08T07:04:02;0.60;;;0.30;;
76035;SDS011;64732;56.314;44.068;2023-10-08T07:06:27;2.83;;;0.60;;
76035;SDS011;64732;56.314;44.068;2023-10-08T07:08:51;1.88;;;0.60;;
76035;SDS011;64732;56.314;44.068;2023-10-08T07:11:13;1.40;;;0.57;;
76035;SDS011;64732;56.314;44.068;2023-10-08T07:13:34;1.92;;;0.90;;
76035;SDS011;64732;56.314;44.068;2023-10-08T07:15:55;0.82;;;0.40;;
76035;SDS011;64732;56.314;44.068;2023-10-08T07:18:17;1.20;;;0.60;;
76035;SDS011;64732;56.314;44.068;2023-10-08T07:20:39;1.85;;;0.40;;
76035;SDS011;64732;56.314;44.068;2023-10-08T07:23:00;1.73;;;0.60;;
76035;SDS011;64732;56.314;44.068;2023-10-08T07:25:24;1.83;;;0.60;;
76035;SDS011;64732;56.314;44.068;2023-10-08T07:27:47;3.03;;;0.82;;
76035;SDS011;64732;56.314;44.068;2023-10-08T07:30:09;3.10;;;0.60;;
76035;SDS011;64732;56.314;44.068;2023-10-08T07:32:30;2.65;;;0.70;;
76035;SDS011;64732;56.314;44.068;2023-10-08T07:34:52;4.05;;;1.05;;
76035;SDS011;64732;56.314;44.068;2023-10-08T07:37:13;3.25;;;1.00;;
76035;SDS011;64732;56.314;44.068;2023-10-08T07:39:37;5.00;;;0.80;;
76035;SDS011;64732;56.314;44.068;2023-10-08T07:42:03;5.07;;;0.82;;
76035;SDS011;64732;56.314;44.068;2023-10-08T07:44:26;2.25;;;0.77;;
76035;SDS011;64732;56.314;44.068;2023-10-08T07:46:48;3.03;;;0.98;;
76035;SDS011;64732;56.314;44.068;2023-10-08T07:49:11;3.25;;;0.85;;
76035;SDS011;64732;56.314;44.068;2023-10-08T07:54:42;1.48;;;0.50;;
76035;SDS011;64732;56.314;44.068;2023-10-08T07:57:06;2.25;;;0.60;;
76035;SDS011;64732;56.314;44.068;2023-10-08T07:59:27;2.53;;;0.70;;
76035;SDS011;64732;56.314;44.068;2023-10-08T08:01:48;0.93;;;0.47;;
76035;SDS011;64732;56.314;44.068;2023-10-08T08:04:12;0.98;;;0.40;;
76035;SDS011;64732;56.314;44.068;2023-10-08T08:06:36;1.55;;;0.60;;
76035;SDS011;64732;56.314;44.068;2023-10-08T08:08:58;1.85;;;0.55;;
76035;SDS011;64732;56.314;44.068;2023-10-08T08:11:23;2.50;;;0.80;;
76035;SDS011;64732;56.314;44.068;2023-10-08T08:13:47;2.05;;;0.70;;
76035;SDS011;64732;56.314;44.068;2023-10-08T08:16:11;3.20;;;0.77;;
76035;SDS011;64732;56.314;44.068;2023-10-08T08:18:33;3.20;;;1.02;;
76035;SDS011;64732;56.314;44.068;2023-10-08T08:20:56;3.13;;;1.05;;
76035;SDS011;64732;56.314;44.068;2023-10-08T08:23:17;2.97;;;1.20;;
76035;SDS011;64732;56.314;44.068;2023-10-08T08:25:42;3.22;;;1.25;;
76035;SDS011;64732;56.314;44.068;2023-10-08T08:28:03;2.90;;;1.08;;
76035;SDS011;64732;56.314;44.068;2023-10-08T08:30:28;4.65;;;1.25;;
76035;SDS011;64732;56.314;44.068;2023-10-08T08:32:52;1.75;;;0.60;;
76035;SDS011;64732;56.314;44.068;2023-10-08T08:35:15;2.80;;;0.68;;
76035;SDS011;64732;56.314;44.068;2023-10-08T08:37:37;1.95;;;0.80;;
76035;SDS011;64732;56.314;44.068;2023-10-08T08:40:00;4.82;;;0.93;;
76035;SDS011;64732;56.314;44.068;2023-10-08T08:42:22;3.72;;;0.95;;
76035;SDS011;64732;56.314;44.068;2023-10-08T08:44:44;2.53;;;0.80;;
76035;SDS011;64732;56.314;44.068;2023-10-08T08:47:09;1.88;;;0.40;;
76035;SDS011;64732;56.314;44.068;2023-10-08T08:49:32;3.22;;;0.80;;
76035;SDS011;64732;56.314;44.068;2023-10-08T08:51:53;1.48;;;0.75;;
76035;SDS011;64732;56.314;44.068;2023-10-08T08:54:15;2.28;;;1.00;;
76035;SDS011;64732;56.314;44.068;2023-10-08T08:56:37;1.90;;;0.88;;
76035;SDS011;64732;56.314;44.068;2023-10-08T08:58:59;1.75;;;0.65;;
76035;SDS011;64732;56.314;44.068;2023-10-08T09:01:21;1.50;;;0.75;;
76035;SDS011;64732;56.314;44.068;2023-10-08T09:03:47;1.25;;;0.60;;
76035;SDS011;64732;56.314;44.068;2023-10-08T09:06:15;1.00;;;0.60;;
76035;SDS011;64732;56.314;44.068;2023-10-08T09:08:42;1.65;;;0.57;;
76035;SDS011;64732;56.314;44.068;2023-10-08T09:11:04;1.77;;;0.70;;
76035;SDS011;64732;56.314;44.068;2023-10-08T09:13:26;3.50;;;0.77;;
76035;SDS011;64732;56.314;44.068;2023-10-08T09:15:49;1.80;;;0.65;;
76035;SDS011;64732;56.314;44.068;2023-10-08T09:18:14;1.15;;;0.50;;
76035;SDS011;64732;56.314;44.068;2023-10-08T09:20:43;1.13;;;0.35;;
76035;SDS011;64732;56.314;44.068;2023-10-08T09:23:08;2.72;;;0.40;;
76035;SDS011;64732;56.314;44.068;2023-10-08T09:25:32;1.52;;;0.50;;
76035;SDS011;64732;56.314;44.068;2023-10-08T09:27:59;1.08;;;0.50;;
76035;SDS011;64732;56.314;44.068;2023-10-08T09:30:21;1.80;;;0.63;;
76035;SDS011;64732;56.314;44.068;2023-10-08T09:32:43;2.13;;;0.70;;
76035;SDS011;64732;56.314;44.068;2023-10-08T09:35:12;1.27;;;0.40;;
76035;SDS011;64732;56.314;44.068;2023-10-08T09:37:37;2.78;;;0.85;;
76035;SDS011;64732;56.314;44.068;2023-10-08T09:40:03;1.08;;;0.50;;
76035;SDS011;64732;56.314;44.068;2023-10-08T09:42:30;2.90;;;0.60;;
76035;SDS011;64732;56.314;44.068;2023-10-08T09:44:57;1.58;;;0.43;;
76035;SDS011;64732;56.314;44.068;2023-10-08T09:47:22;2.00;;;0.47;;
76035;SDS011;64732;56.314;44.068;2023-10-08T09:49:49;1.02;;;0.40;;
76035;SDS011;64732;56.314;44.068;2023-10-08T09:52:19;1.45;;;0.40;;
76035;SDS011;64732;56.314;44.068;2023-10-08T09:54:51;1.83;;;0.30;;
76035;SDS011;64732;56.314;44.068;2023-10-08T09:57:20;2.40;;;0.45;;
76035;SDS011;64732;56.314;44.068;2023-10-08T09:59:43;0.50;;;0.30;;
76035;SDS011;64732;56.314;44.068;2023-10-08T10:02:13;2.75;;;0.50;;
76035;SDS011;64732;56.314;44.068;2023-10-08T10:04:42;2.97;;;0.70;;
76035;SDS011;64732;56.314;44.068;2023-10-08T10:07:13;2.15;;;0.30;;
76035;SDS011;64732;56.314;44.068;2023-10-08T10:09:53;1.85;;;0.30;;
76035;SDS011;64732;56.314;44.068;2023-10-08T10:12:18;0.65;;;0.32;;
76035;SDS011;64732;56.314;44.068;2023-10-08T10:14:41;2.50;;;0.50;;
76035;SDS011;64732;56.314;44.068;2023-10-08T10:17:11;0.88;;;0.43;;
76035;SDS011;64732;56.314;44.068;2023-10-08T10:19:34;0.63;;;0.30;;
76035;SDS011;64732;56.314;44.068;2023-10-08T10:21:57;2.60;;;0.40;;
76035;SDS011;64732;56.314;44.068;2023-10-08T10:24:28;1.92;;;0.60;;
76035;SDS011;64732;56.314;44.068;2023-10-08T10:29:38;0.77;;;0.38;;
76035;SDS011;64732;56.314;44.068;2023-10-08T10:32:00;2.03;;;0.70;;
76035;SDS011;64732;56.314;44.068;2023-10-08T10:34:26;1.83;;;0.55;;
76035;SDS011;64732;56.314;44.068;2023-10-08T10:36:51;1.60;;;0.70;;
76035;SDS011;64732;56.314;44.068;2023-10-08T10:39:23;0.98;;;0.40;;
76035;SDS011;64732;56.314;44.068;2023-10-08T10:41:47;1.17;;;0.38;;
76035;SDS011;64732;56.314;44.068;2023-10-08T10:44:12;1.63;;;0.65;;
76035;SDS011;64732;56.314;44.068;2023-10-08T10:46:33;1.88;;;0.30;;
76035;SDS011;64732;56.314;44.068;2023-10-08T10:48:55;1.60;;;0.45;;
76035;SDS011;64732;56.314;44.068;2023-10-08T10:51:16;1.38;;;0.40;;
76035;SDS011;64732;56.314;44.068;2023-10-08T10:53:40;1.42;;;0.57;;
76035;SDS011;64732;56.314;44.068;2023-10-08T10:56:02;1.15;;;0.40;;
76035;SDS011;64732;56.314;44.068;2023-10-08T10:58:30;1.20;;;0.40;;
76035;SDS011;64732;56.314;44.068;2023-10-08T11:00:59;1.83;;;0.40;;
76035;SDS011;64732;56.314;44.068;2023-10-08T11:03:24;0.55;;;0.20;;
76035;SDS011;64732;56.314;44.068;2023-10-08T11:05:49;1.13;;;0.45;;
76035;SDS011;64732;56.314;44.068;2023-10-08T11:08:16;1.38;;;0.70;;
76035;SDS011;64732;56.314;44.068;2023-10-08T11:10:47;2.50;;;0.60;;
76035;SDS011;64732;56.314;44.068;2023-10-08T11:13:45;2.08;;;0.77;;
76035;SDS011;64732;56.314;44.068;2023-10-08T11:16:27;4.35;;;0.85;;
76035;SDS011;64732;56.314;44.068;2023-10-08T11:18:49;1.90;;;0.88;;
76035;SDS011;64732;56.314;44.068;2023-10-08T11:23:45;1.95;;;0.47;;
76035;SDS011;64732;56.314;44.068;2023-10-08T11:26:14;4.43;;;1.60;;
76035;SDS011;64732;56.314;44.068;2023-10-08T11:28:39;1.15;;;0.30;;
76035;SDS011;64732;56.314;44.068;2023-10-08T11:31:04;1.60;;;0.52;;
76035;SDS011;64732;56.314;44.068;2023-10-08T11:33:34;0.98;;;0.40;;
76035;SDS011;64732;56.314;44.068;2023-10-08T11:35:57;1.80;;;0.55;;
76035;SDS011;64732;56.314;44.068;2023-10-08T11:38:24;0.60;;;0.20;;
76035;SDS011;64732;56.314;44.068;2023-10-08T11:40:55;1.30;;;0.43;;
76035;SDS011;64732;56.314;44.068;2023-10-08T11:43:29;0.63;;;0.28;;
76035;SDS011;64732;56.314;44.068;2023-10-08T11:45:54;7.90;;;0.50;;
76035;SDS011;64732;56.314;44.068;2023-10-08T11:48:23;1.80;;;0.60;;
76035;SDS011;64732;56.314;44.068;2023-10-08T11:50:51;1.40;;;0.50;;
76035;SDS011;64732;56.314;44.068;2023-10-08T11:53:13;0.55;;;0.30;;
76035;SDS011;64732;56.314;44.068;2023-10-08T11:55:35;0.95;;;0.30;;
76035;SDS011;64732;56.314;44.068;2023-10-08T11:58:02;0.52;;;0.20;;
76035;SDS011;64732;56.314;44.068;2023-10-08T12:00:42;2.45;;;0.30;;
76035;SDS011;64732;56.314;44.068;2023-10-08T12:03:08;1.63;;;0.20;;
76035;SDS011;64732;56.314;44.068;2023-10-08T12:05:37;0.55;;;0.25;;
76035;SDS011;64732;56.314;44.068;2023-10-08T12:08:05;1.02;;;0.30;;
76035;SDS011;64732;56.314;44.068;2023-10-08T12:13:01;3.10;;;0.70;;
76035;SDS011;64732;56.314;44.068;2023-10-08T12:15:29;1.17;;;0.45;;
76035;SDS011;64732;56.314;44.068;2023-10-08T12:17:54;1.38;;;0.60;;
76035;SDS011;64732;56.314;44.068;2023-10-08T12:20:16;1.65;;;0.70;;
76035;SDS011;64732;56.314;44.068;2023-10-08T12:30:27;0.90;;;0.30;;
76035;SDS011;64732;56.314;44.068;2023-10-08T12:40:43;3.72;;;0.80;;
76035;SDS011;64732;56.314;44.068;2023-10-08T12:43:05;1.75;;;0.82;;
76035;SDS011;64732;56.314;44.068;2023-10-08T12:55:36;2.53;;;0.77;;
76035;SDS011;64732;56.314;44.068;2023-10-08T13:10:34;2.05;;;0.80;;
76035;SDS011;64732;56.314;44.068;2023-10-08T13:12:58;2.13;;;0.50;;
76035;SDS011;64732;56.314;44.068;2023-10-08T13:15:34;1.23;;;0.40;;
76035;SDS011;64732;56.314;44.068;2023-10-08T13:18:21;1.60;;;0.40;;
76035;SDS011;64732;56.314;44.068;2023-10-08T13:21:12;1.95;;;0.70;;
76035;SDS011;64732;56.314;44.068;2023-10-08T13:23:37;1.63;;;0.60;;
76035;SDS011;64732;56.314;44.068;2023-10-08T13:26:13;1.80;;;0.93;;
76035;SDS011;64732;56.314;44.068;2023-10-08T13:28:38;2.33;;;0.68;;
76035;SDS011;64732;56.314;44.068;2023-10-08T13:31:03;3.50;;;0.75;;
76035;SDS011;64732;56.314;44.068;2023-10-08T13:33:28;5.78;;;0.93;;
76035;SDS011;64732;56.314;44.068;2023-10-08T13:35:59;1.65;;;0.80;;
76035;SDS011;64732;56.314;44.068;2023-10-08T13:38:24;1.52;;;0.57;;
76035;SDS011;64732;56.314;44.068;2023-10-08T13:40:46;1.25;;;0.45;;
76035;SDS011;64732;56.314;44.068;2023-10-08T13:43:14;2.22;;;0.65;;
76035;SDS011;64732;56.314;44.068;2023-10-08T13:45:39;2.33;;;0.73;;
76035;SDS011;64732;56.314;44.068;2023-10-08T13:48:05;2.22;;;0.88;;
76035;SDS011;64732;56.314;44.068;2023-10-08T13:50:42;1.73;;;0.73;;
76035;SDS011;64732;56.314;44.068;2023-10-08T13:53:07;1.67;;;0.60;;
76035;SDS011;64732;56.314;44.068;2023-10-08T13:55:33;1.67;;;0.68;;
76035;SDS011;64732;56.314;44.068;2023-10-08T13:58:20;2.00;;;0.90;;
76035;SDS011;64732;56.314;44.068;2023-10-08T14:01:11;3.15;;;1.10;;
76035;SDS011;64732;56.314;44.068;2023-10-08T14:03:34;1.95;;;0.80;;
76035;SDS011;64732;56.314;44.068;2023-10-08T14:05:58;1.73;;;1.00;;
76035;SDS011;64732;56.314;44.068;2023-10-08T14:08:22;2.75;;;1.10;;
76035;SDS011;64732;56.314;44.068;2023-10-08T14:10:47;3.03;;;0.85;;
76035;SDS011;64732;56.314;44.068;2023-10-08T14:13:09;1.55;;;0.60;;
76035;SDS011;64732;56.314;44.068;2023-10-08T14:15:42;5.05;;;0.98;;
76035;SDS011;64732;56.314;44.068;2023-10-08T14:18:10;1.73;;;0.85;;
76035;SDS011;64732;56.314;44.068;2023-10-08T14:20:39;3.15;;;0.93;;
76035;SDS011;64732;56.314;44.068;2023-10-08T14:23:01;1.85;;;0.90;;
76035;SDS011;64732;56.314;44.068;2023-10-08T14:25:37;2.67;;;0.90;;
76035;SDS011;64732;56.314;44.068;2023-10-08T14:28:06;1.25;;;0.63;;
76035;SDS011;64732;56.314;44.068;2023-10-08T14:30:33;1.20;;;0.55;;
76035;SDS011;64732;56.314;44.068;2023-10-08T14:33:02;1.83;;;0.93;;
76035;SDS011;64732;56.314;44.068;2023-10-08T14:35:32;1.77;;;0.73;;
76035;SDS011;64732;56.314;44.068;2023-10-08T14:38:00;1.30;;;0.50;;
76035;SDS011;64732;56.314;44.068;2023-10-08T14:40:24;0.90;;;0.40;;
76035;SDS011;64732;56.314;44.068;2023-10-08T14:42:53;1.42;;;0.35;;
76035;SDS011;64732;56.314;44.068;2023-10-08T14:45:18;2.13;;;0.50;;
76035;SDS011;64732;56.314;44.068;2023-10-08T14:47:40;5.10;;;0.68;;
76035;SDS011;64732;56.314;44.068;2023-10-08T14:50:09;1.08;;;0.60;;
76035;SDS011;64732;56.314;44.068;2023-10-08T14:52:35;1.92;;;0.68;;
76035;SDS011;64732;56.314;44.068;2023-10-08T14:55:07;4.22;;;0.60;;
76035;SDS011;64732;56.314;44.068;2023-10-08T14:57:31;1.05;;;0.60;;
76035;SDS011;64732;56.314;44.068;2023-10-08T15:00:03;4.03;;;0.80;;
76035;SDS011;64732;56.314;44.068;2023-10-08T15:04:56;2.22;;;0.50;;